Time;durP1;ratioP1;P1;durP2;ratioP2;P2;SDS_P1;SDS_P2;PMS_P1;PMS_P2;Temp;Humidity;BMP_temperature;BMP_pressure;BME280_temperature;BME280_humidity;BME280_pressure;Samples;Min_cycle;Max_cycle;Signal;HPM_P1;HPM_P2
2021/06/24 00:00:57;;;;;;;7.83;2.92;;;;;;;22.37;58.64;100872.14;1777277;81;21394;-60
2021/06/24 00:03:31;;;;;;;11.12;2.98;;;;;;;22.34;58.56;100873.03;1778346;81;21236;-60
2021/06/24 00:06:06;;;;;;;7.42;2.40;;;;;;;22.30;58.50;100881.13;1777726;81;21260;-60
2021/06/24 00:08:39;;;;;;;5.78;2.47;;;;;;;22.25;58.47;100881.72;1777180;81;21811;-61
2021/06/24 00:11:12;;;;;;;7.72;2.47;;;;;;;22.22;58.37;100876.77;1777529;81;21283;-61
2021/06/24 00:13:46;;;;;;;8.15;2.42;;;;;;;22.20;58.15;100879.31;1778373;80;21165;-60
2021/06/24 00:16:18;;;;;;;7.20;2.70;;;;;;;22.18;58.13;100882.19;1777365;81;21208;-60
2021/06/24 00:18:51;;;;;;;9.58;2.72;;;;;;;22.16;57.99;100886.06;1777450;81;21280;-60
2021/06/24 00:21:24;;;;;;;5.70;2.55;;;;;;;22.13;58.06;100886.78;1777734;81;21314;-60
2021/06/24 00:23:58;;;;;;;12.23;2.87;;;;;;;22.10;58.09;100883.16;1778330;81;21173;-60
2021/06/24 00:26:31;;;;;;;8.80;2.70;;;;;;;22.08;58.11;100882.54;1777596;81;21150;-60
2021/06/24 00:29:05;;;;;;;6.85;2.65;;;;;;;22.05;58.39;100887.42;1777542;81;21700;-60
2021/06/24 00:31:39;;;;;;;3.87;2.22;;;;;;;22.00;58.63;100888.02;1780524;80;21311;-60
2021/06/24 00:34:12;;;;;;;4.85;2.27;;;;;;;21.97;58.80;100881.73;1792583;80;21790;-60
2021/06/24 00:36:45;;;;;;;6.45;2.77;;;;;;;21.97;58.67;100883.59;1791596;80;21275;-60
2021/06/24 00:39:19;;;;;;;7.33;2.83;;;;;;;21.95;58.55;100882.94;1791668;80;21235;-59
2021/06/24 00:41:53;;;;;;;11.00;2.47;;;;;;;21.96;58.44;100888.09;1791170;80;21211;-60
2021/06/24 00:44:26;;;;;;;6.47;2.60;;;;;;;21.96;58.10;100887.27;1792584;80;21209;-60
2021/06/24 00:46:59;;;;;;;7.00;2.55;;;;;;;21.97;57.90;100890.26;1791262;80;21314;-60
2021/06/24 00:49:33;;;;;;;5.83;2.40;;;;;;;21.95;57.84;100888.27;1791632;80;21866;-60
2021/06/24 00:52:07;;;;;;;;;;;;;;;21.94;57.97;100891.97;1794186;80;21307;-60
2021/06/24 00:54:40;;;;;;;6.28;2.35;;;;;;;21.92;57.47;100892.17;1793039;80;20230;-60
2021/06/24 00:57:14;;;;;;;5.50;2.05;;;;;;;21.90;56.98;100894.19;1791532;80;21295;-60
2021/06/24 00:59:47;;;;;;;5.55;2.27;;;;;;;21.91;56.13;100899.02;1791483;80;21298;-60
2021/06/24 01:02:21;;;;;;;6.92;2.40;;;;;;;21.94;55.57;100896.80;1791517;80;21271;-60
2021/06/24 01:04:54;;;;;;;5.67;2.30;;;;;;;21.97;55.17;100900.39;1792621;80;21294;-60
2021/06/24 01:07:27;;;;;;;4.40;2.02;;;;;;;22.02;54.82;100903.80;1791632;80;21837;-60
2021/06/24 01:10:20;;;;;;;6.80;2.15;;;;;;;22.05;54.38;100908.75;1708421;84;21407;-59
2021/06/24 01:12:53;;;;;;;3.98;1.82;;;;;;;22.09;53.95;100910.03;1707737;84;21208;-60
2021/06/24 01:15:26;;;;;;;6.10;2.37;;;;;;;22.14;53.70;100916.91;1741871;80;21307;-60
2021/06/24 01:18:01;;;;;;;5.85;2.10;;;;;;;22.22;53.19;100912.77;1791255;80;21172;-59
2021/06/24 01:20:36;;;;;;;3.27;1.95;;;;;;;22.34;53.36;100922.38;1791497;80;21188;-59
2021/06/24 01:23:11;;;;;;;4.90;2.33;;;;;;;22.39;54.20;100918.11;1790965;80;21310;-60
2021/06/24 01:25:45;;;;;;;4.62;2.40;;;;;;;22.38;54.98;100924.45;1792861;80;21738;-59
2021/06/24 01:28:18;;;;;;;4.35;2.15;;;;;;;22.36;55.35;100923.00;1792750;80;21141;-59
2021/06/24 01:30:51;;;;;;;;;;;;;;;22.32;55.70;100926.59;1793905;80;21274;-59
2021/06/24 01:33:25;;;;;;;3.45;1.90;;;;;;;22.25;56.11;100919.56;1781165;80;20223;-60
2021/06/24 01:36:00;;;;;;;8.38;2.10;;;;;;;22.19;56.36;100921.16;1739739;81;21280;-59
2021/06/24 01:38:34;;;;;;;6.30;2.37;;;;;;;22.16;56.44;100920.23;1769008;81;21137;-59
2021/06/24 01:41:16;;;;;;;6.50;2.62;;;;;;;22.16;56.44;100922.08;1765716;81;21253;-60
2021/06/24 01:43:49;;;;;;;9.63;2.80;;;;;;;22.13;56.36;100918.78;1768789;81;21158;-60
2021/06/24 01:46:22;;;;;;;9.20;2.70;;;;;;;22.12;56.51;100921.13;1769162;81;21823;-60
2021/06/24 01:48:57;;;;;;;10.58;3.02;;;;;;;22.09;56.78;100922.84;1768740;81;21220;-60
2021/06/24 01:51:32;;;;;;;7.28;2.65;;;;;;;22.06;57.10;100925.08;1769149;81;21146;-59
2021/06/24 01:54:06;;;;;;;5.45;2.58;;;;;;;22.03;57.49;100924.95;1769408;81;21146;-60
2021/06/24 01:56:40;;;;;;;6.53;2.45;;;;;;;22.01;57.82;100923.00;1769041;81;21248;-60
2021/06/24 01:59:13;;;;;;;7.15;2.60;;;;;;;21.98;58.17;100922.05;1768858;81;21264;-60
2021/06/24 02:01:56;;;;;;;;;;;;;;;21.99;58.41;100923.70;1769077;81;21296;-60
2021/06/24 02:04:33;;;;;;;6.67;2.30;;;;;;;21.98;58.67;100926.55;1755130;81;20227;-60
2021/06/24 02:07:06;;;;;;;6.10;2.50;;;;;;;22.00;58.87;100932.00;1767957;81;21197;-59
2021/06/24 02:09:53;;;;;;;6.47;2.70;;;;;;;22.03;58.94;100933.46;1764220;81;21275;-60
2021/06/24 02:12:28;;;;;;;7.03;3.00;;;;;;;22.06;58.95;100930.41;1767751;81;21157;-60
2021/06/24 02:15:01;;;;;;;11.90;3.10;;;;;;;22.09;58.91;100932.17;1768994;81;21181;-60
2021/06/24 02:17:34;;;;;;;;;;;;;;;22.10;59.09;100936.49;1771295;81;21161;-60
2021/06/24 02:20:10;;;;;;;6.42;2.52;;;;;;;22.12;59.30;100934.45;1763488;81;20227;-60
2021/06/24 02:22:45;;;;;;;8.78;2.62;;;;;;;22.12;59.44;100933.12;1767258;81;21265;-61
2021/06/24 02:25:20;;;;;;;6.65;3.00;;;;;;;22.17;59.56;100937.04;1769028;81;21716;-61
2021/06/24 02:28:04;;;;;;;5.90;3.02;;;;;;;22.19;59.28;100936.36;1765699;81;21181;-61
2021/06/24 02:30:43;;;;;;;4.95;2.65;;;;;;;22.19;59.28;100936.36;1768851;81;21170;-62
2021/06/24 02:33:18;;;;;;;7.45;2.87;;;;;;;22.22;59.57;100935.95;1768458;81;21728;-62
2021/06/24 02:35:58;;;;;;;8.73;2.70;;;;;;;22.32;59.63;100935.92;1789393;80;21160;-62
2021/06/24 02:38:33;;;;;;;10.63;3.12;;;;;;;22.44;59.58;100936.20;1790909;80;21267;-61
2021/06/24 02:41:06;;;;;;;13.45;2.87;;;;;;;22.57;59.41;100937.63;1760281;80;21299;-59
2021/06/24 02:43:39;;;;;;;7.03;3.00;;;;;;;22.70;59.24;100939.03;1791703;80;21874;-59
2021/06/24 02:46:14;;;;;;;13.90;3.47;;;;;;;22.83;58.98;100936.45;1792904;80;21574;-59
2021/06/24 02:48:48;;;;;;;12.95;3.55;;;;;;;;;;1791635;80;21253;-59
2021/06/24 02:51:22;;;;;;;10.23;3.70;;;;;;;23.08;58.40;100939.39;1791953;80;21176;-61
2021/06/24 02:54:01;;;;;;;6.83;3.27;;;;;;;23.14;58.16;100940.73;1789959;80;21294;-60
2021/06/24 02:56:37;;;;;;;11.33;3.67;;;;;;;23.14;58.07;100940.73;1761017;80;21307;-60
2021/06/24 02:59:12;;;;;;;7.70;3.62;;;;;;;23.16;58.08;100937.89;1791797;80;21207;-61
2021/06/24 03:01:45;;;;;;;8.20;3.37;;;;;;;23.18;58.07;100934.50;1791861;80;21724;-61
2021/06/24 03:04:22;;;;;;;8.10;3.37;;;;;;;23.21;58.03;100946.13;1790918;80;21286;-62
2021/06/24 03:06:56;;;;;;;7.55;3.40;;;;;;;23.24;58.08;100945.70;1791359;80;21883;-61
2021/06/24 03:09:32;;;;;;;14.78;4.10;;;;;;;23.32;58.14;100951.70;1791822;80;21167;-61
2021/06/24 03:12:06;;;;;;;7.17;2.72;;;;;;;23.41;58.15;100943.83;1791602;80;21176;-61
2021/06/24 03:14:41;;;;;;;7.00;3.10;;;;;;;23.48;57.87;100945.70;1790576;80;21806;-63
2021/06/24 03:17:14;;;;;;;9.25;3.17;;;;;;;23.52;57.80;100949.11;1792948;80;21137;-62
2021/06/24 03:19:48;;;;;;;6.55;3.02;;;;;;;23.56;57.85;100950.84;1791268;80;21196;-62
2021/06/24 03:22:22;;;;;;;9.68;3.35;;;;;;;23.64;57.87;100956.00;1759760;80;22110;-62
2021/06/24 03:24:57;;;;;;;8.90;3.08;;;;;;;23.72;57.80;100945.09;1791582;80;21227;-62
2021/06/24 03:27:31;;;;;;;9.23;3.02;;;;;;;23.80;57.69;100943.56;1792976;80;21295;-61
2021/06/24 03:30:14;;;;;;;15.48;3.58;;;;;;;23.87;57.36;100939.87;1777908;80;21180;-61
2021/06/24 03:32:47;;;;;;;11.18;3.47;;;;;;;23.97;57.16;100942.96;1791320;80;21224;-60
2021/06/24 03:35:21;;;;;;;10.05;3.12;;;;;;;24.07;56.89;100946.05;1785054;80;21272;-59
2021/06/24 03:37:53;;;;;;;;;;;;;;;24.19;56.88;100944.93;1771387;81;21705;-59
2021/06/24 03:40:26;;;;;;;8.03;3.42;;;;;;;24.29;56.71;100937.27;1767810;81;20585;-60
2021/06/24 03:43:02;;;;;;;8.65;3.20;;;;;;;24.36;56.71;100936.74;1767523;81;22002;-61
2021/06/24 03:45:37;;;;;;;14.07;3.37;;;;;;;24.47;56.43;100940.13;1767623;81;21177;-63
2021/06/24 03:48:11;;;;;;;9.00;3.30;;;;;;;24.67;55.88;100933.39;1768838;81;21118;-62
2021/06/24 03:50:44;;;;;;;;;;;;;;;24.87;55.21;100927.97;1769614;81;21320;-63
2021/06/24 03:53:16;;;;;;;6.47;2.83;;;;;;;25.11;54.71;100937.44;1767443;81;20226;-63
2021/06/24 03:55:49;;;;;;;15.80;2.87;;;;;;;25.30;54.45;100927.12;1767744;81;21800;-62
2021/06/24 03:58:24;;;;;;;8.93;2.80;;;;;;;25.42;54.21;100931.27;1766614;81;21157;-61
2021/06/24 04:00:58;;;;;;;10.45;3.47;;;;;;;25.48;54.04;100921.59;1767674;81;21201;-62
2021/06/24 04:03:31;;;;;;;9.48;3.70;;;;;;;25.50;53.68;100933.73;1767605;81;21296;-63
2021/06/24 04:06:09;;;;;;;7.60;3.90;;;;;;;25.47;53.72;100936.84;1767196;81;21252;-64
2021/06/24 04:08:43;;;;;;;11.28;3.22;;;;;;;25.51;53.80;100929.20;1764970;81;21292;-63
2021/06/24 04:11:25;;;;;;;14.78;3.87;;;;;;;25.57;53.73;100935.02;1762386;81;21177;-63
2021/06/24 04:14:04;;;;;;;7.67;3.60;;;;;;;25.58;53.61;100948.75;1765525;81;21351;-63
2021/06/24 04:16:59;;;;;;;7.10;3.60;;;;;;;25.56;53.82;100943.58;1768339;81;21189;-61
2021/06/24 04:19:33;;;;;;;10.20;3.45;;;;;;;25.63;53.95;100946.20;1767390;81;21193;-62
2021/06/24 04:22:06;;;;;;;11.20;3.52;;;;;;;25.68;53.84;100945.03;1769103;81;21150;-61
2021/06/24 04:24:40;;;;;;;13.38;3.80;;;;;;;25.77;53.85;100948.57;1763655;81;21296;-62
2021/06/24 04:27:13;;;;;;;11.33;3.90;;;;;;;25.87;53.70;100952.94;1767502;81;21138;-61
2021/06/24 04:29:47;;;;;;;8.65;4.25;;;;;;;25.91;53.40;100948.77;1766468;81;21331;-63
2021/06/24 04:32:20;;;;;;;8.95;4.60;;;;;;;26.02;53.25;100944.05;1766224;81;21228;-63
2021/06/24 04:34:53;;;;;;;14.98;5.03;;;;;;;26.15;53.33;100933.75;1766802;81;21265;-63
2021/06/24 04:37:28;;;;;;;13.93;4.80;;;;;;;26.26;53.16;100941.06;1779818;80;22155;-63
2021/06/24 04:40:01;;;;;;;22.48;5.35;;;;;;;26.36;53.26;100944.58;1789559;80;21322;-62
2021/06/24 04:42:36;;;;;;;21.45;5.17;;;;;;;26.46;53.08;100940.86;1788274;80;21306;-62
2021/06/24 04:45:14;;;;;;;21.05;5.00;;;;;;;26.56;52.71;100943.83;1789198;80;21286;-62
2021/06/24 04:48:06;;;;;;;15.58;4.60;;;;;;;26.64;52.76;100939.51;1806183;79;21275;-63
2021/06/24 04:50:41;;;;;;;22.62;4.53;;;;;;;26.69;52.85;100945.86;1769866;81;21295;-63
2021/06/24 04:53:14;;;;;;;24.67;4.10;;;;;;;26.75;52.73;100948.18;1740883;82;21374;-63
2021/06/24 04:55:48;;;;;;;27.52;4.42;;;;;;;26.79;52.54;100953.42;1753669;81;22153;-61
2021/06/24 05:02:33;;;;;;;36.23;5.45;;;;;;;26.89;52.30;100949.69;1754055;81;21391;-66
2021/06/24 05:05:24;;;;;;;32.40;5.65;;;;;;;27.00;51.83;100948.91;1718131;77;21383;-66
2021/06/24 05:12:09;;;;;;;13.45;4.03;;;;;;;27.49;51.63;100935.73;1717048;83;21487;-63
2021/06/24 05:18:52;;;;;;;14.25;3.15;;;;;;;27.61;51.71;100937.92;1716786;82;21487;-64
2021/06/24 05:25:37;;;;;;;11.45;3.80;;;;;;;27.98;52.57;100937.22;1715428;83;21220;-63
2021/06/24 05:28:10;;;;;;;7.05;3.08;;;;;;;28.25;52.51;100934.39;1716790;83;21308;-62
2021/06/24 05:30:45;;;;;;;10.82;3.77;;;;;;;28.45;52.30;100933.47;1717352;83;22127;-62
2021/06/24 05:33:18;;;;;;;11.97;3.85;;;;;;;28.65;51.87;100938.52;1716442;83;21339;-61
2021/06/24 05:35:52;;;;;;;16.10;4.28;;;;;;;28.85;50.76;100928.69;1715488;83;22121;-62
2021/06/24 05:38:25;;;;;;;;;;;;;;;29.05;50.43;100926.36;1719256;83;21327;-62
2021/06/24 05:40:58;;;;;;;14.78;4.03;;;;;;;29.26;50.08;100927.05;1715469;83;20299;-63
2021/06/24 05:43:30;;;;;;;;;;;;;;;29.45;49.79;100938.47;1718888;83;22135;-64
2021/06/24 05:46:03;;;;;;;16.27;4.40;;;;;;;29.60;49.68;100934.14;1715138;83;20746;-64
2021/06/24 05:48:35;;;;;;;;;;;;;;;29.72;49.52;100938.11;1718873;83;21193;-65
2021/06/24 05:51:08;;;;;;;19.98;3.70;;;;;;;29.85;48.81;100937.27;1715225;83;20262;-63
2021/06/24 05:53:41;;;;;;;;;;;;;;;29.90;48.04;100933.86;1718961;83;21628;-64
2021/06/24 05:56:13;;;;;;;11.22;3.08;;;;;;;29.94;47.44;100936.34;1715497;83;20214;-63
2021/06/24 05:58:46;;;;;;;10.70;3.30;;;;;;;29.94;46.89;100933.13;1716680;83;21306;-61
2021/06/24 06:01:20;;;;;;;11.57;2.90;;;;;;;29.95;46.75;100934.73;1715383;83;21335;-62
2021/06/24 06:03:55;;;;;;;14.40;2.80;;;;;;;29.95;46.51;100930.69;1716291;83;22017;-62
2021/06/24 06:06:27;;;;;;;;;;;;;;;29.95;46.50;100933.39;1712567;82;21498;-61
2021/06/24 06:09:00;;;;;;;11.90;2.95;;;;;;;29.97;46.68;100935.86;1712564;82;20762;-62
2021/06/24 06:11:33;;;;;;;7.53;2.98;;;;;;;29.99;46.70;100931.03;1681654;85;21230;-62
2021/06/24 06:14:07;;;;;;;9.55;2.70;;;;;;;30.05;46.76;100935.42;1682965;85;21240;-63
2021/06/24 06:16:40;;;;;;;9.60;2.80;;;;;;;30.34;46.88;100937.49;1674348;85;21356;-64
2021/06/24 06:19:15;;;;;;;;;;;;;;;30.34;46.88;100937.49;1670342;86;22065;-64
2021/06/24 06:21:48;;;;;;;8.38;3.08;;;;;;;30.52;46.13;100935.31;1672312;85;20279;-65
2021/06/24 06:24:20;;;;;;;12.73;3.15;;;;;;;30.74;46.29;100938.02;1679176;85;22037;-65
2021/06/24 06:26:54;;;;;;;13.15;3.05;;;;;;;31.04;46.01;100949.23;1679278;85;21249;-64
2021/06/24 06:29:27;;;;;;;12.53;3.50;;;;;;;31.54;45.45;100948.13;1679537;85;22182;-65
2021/06/24 06:32:00;;;;;;;10.28;2.77;;;;;;;32.20;44.52;100946.76;1679526;85;21544;-66
2021/06/24 06:34:33;;;;;;;9.68;2.90;;;;;;;32.83;42.89;100943.04;1678921;85;21240;-64
2021/06/24 06:37:07;;;;;;;7.87;3.15;;;;;;;33.42;41.19;100940.22;1679531;85;21212;-64
2021/06/24 06:39:39;;;;;;;;;;;;;;;33.86;40.14;100939.17;1681403;85;21319;-64
2021/06/24 06:42:12;;;;;;;8.38;2.90;;;;;;;34.09;38.99;100948.13;1679726;85;20404;-63
2021/06/24 06:44:46;;;;;;;8.93;2.77;;;;;;;34.14;39.15;100944.58;1655921;85;21343;-61
2021/06/24 06:47:19;;;;;;;12.68;2.92;;;;;;;34.10;39.15;100944.88;1679083;85;22243;-62
2021/06/24 06:49:53;;;;;;;16.80;2.87;;;;;;;33.97;39.55;100950.82;1678738;85;21308;-63
2021/06/24 06:52:27;;;;;;;12.98;3.20;;;;;;;33.81;40.16;100950.03;1679455;85;22121;-63
2021/06/24 06:55:00;;;;;;;11.43;2.77;;;;;;;33.72;40.53;100955.18;1678350;85;21269;-63
2021/06/24 06:57:34;;;;;;;11.95;3.27;;;;;;;33.67;40.88;100947.06;1678950;85;22395;-64
2021/06/24 07:00:09;;;;;;;9.60;2.37;;;;;;;33.73;40.73;100947.86;1678763;85;21347;-63
2021/06/24 07:02:43;;;;;;;8.03;2.85;;;;;;;33.80;39.04;100947.03;1679333;85;21205;-61
2021/06/24 07:05:15;;;;;;;;;;;;;;;33.90;38.18;100948.39;1681145;84;21593;-62
2021/06/24 07:07:48;;;;;;;10.43;2.60;;;;;;;34.09;37.54;100953.56;1679294;85;20427;-62
2021/06/24 07:10:22;;;;;;;12.68;2.90;;;;;;;34.23;37.24;100950.54;1678048;85;21621;-63
2021/06/24 07:12:55;;;;;;;15.48;2.95;;;;;;;34.42;37.07;100952.94;1678349;85;21213;-63
2021/06/24 07:15:31;;;;;;;17.32;3.65;;;;;;;34.76;36.74;100947.67;1678430;85;21347;-62
2021/06/24 07:18:06;;;;;;;10.28;2.60;;;;;;;35.13;35.98;100947.24;1679474;85;21193;-64
2021/06/24 07:20:41;;;;;;;18.10;3.12;;;;;;;35.43;34.69;100949.75;1679040;85;21379;-62
2021/06/24 07:27:10;;;;;;;48.87;5.50;;;;;;;35.81;33.98;100953.00;1678517;83;21411;-65
2021/06/24 07:29:44;;;;;;;9.95;2.20;;;;;;;36.34;32.27;100947.05;1679248;85;21335;-63
2021/06/24 07:32:19;;;;;;;11.08;2.15;;;;;;;36.77;31.57;100952.55;1678395;85;22144;-65
2021/06/24 07:34:52;;;;;;;12.30;2.45;;;;;;;37.29;31.11;100954.30;1679426;85;21335;-63
2021/06/24 07:37:26;;;;;;;5.80;2.08;;;;;;;37.93;29.93;100950.85;1678278;85;21351;-66
2021/06/24 07:40:01;;;;;;;9.73;2.47;;;;;;;38.38;28.74;100947.28;1679345;85;21758;-64
2021/06/24 07:46:45;;;;;;;12.63;2.50;;;;;;;39.17;28.42;100940.97;1676371;85;21608;-66
2021/06/24 07:49:23;;;;;;;12.13;2.20;;;;;;;39.24;27.98;100949.02;1674195;85;22007;-65
2021/06/24 07:51:56;;;;;;;7.35;2.15;;;;;;;39.24;27.76;100953.12;1672274;85;21236;-64
2021/06/24 07:54:29;;;;;;;18.17;2.75;;;;;;;39.22;27.73;100955.92;1664847;85;22116;-64
2021/06/24 07:57:04;;;;;;;11.20;2.45;;;;;;;39.28;27.35;100956.03;1672918;85;21279;-62
2021/06/24 07:59:37;;;;;;;13.03;2.85;;;;;;;39.20;27.01;100948.55;1674483;85;21237;-63
2021/06/24 08:06:22;;;;;;;12.82;2.58;;;;;;;39.53;25.89;100945.81;1677744;84;21403;-63
2021/06/24 08:08:56;;;;;;;15.75;2.72;;;;;;;39.67;26.16;100945.23;1673747;85;21433;-62
2021/06/24 08:11:29;;;;;;;4.50;2.22;;;;;;;39.92;26.54;100943.75;1677476;85;21339;-63
2021/06/24 08:14:03;;;;;;;22.45;3.50;;;;;;;40.20;26.09;100939.15;1676744;84;21526;-61
2021/06/24 08:16:36;;;;;;;6.35;1.70;;;;;;;40.47;25.78;100940.89;1676080;84;21347;-63
2021/06/24 08:19:09;;;;;;;9.93;2.22;;;;;;;40.85;25.37;100945.23;1674501;85;21494;-65
2021/06/24 08:21:43;;;;;;;13.20;2.20;;;;;;;41.26;24.78;100926.94;1674238;85;22048;-64
2021/06/24 08:24:16;;;;;;;6.78;2.08;;;;;;;41.77;24.43;100939.86;1675262;85;21491;-63
2021/06/24 08:26:49;;;;;;;11.55;2.05;;;;;;;42.08;22.15;100935.71;1673845;85;21390;-64
2021/06/24 08:29:24;;;;;;;9.40;2.02;;;;;;;42.21;22.63;100935.26;1674627;85;21261;-61
2021/06/24 08:32:00;;;;;;;21.95;3.65;;;;;;;42.37;22.46;100931.39;1674356;85;22026;-64
2021/06/24 08:34:36;;;;;;;9.48;2.05;;;;;;;42.60;22.56;100922.53;1674540;85;21225;-62
2021/06/24 08:41:20;;;;;;;7.90;1.92;;;;;;;43.29;22.02;100911.00;1674505;85;21272;-61
2021/06/24 08:43:54;;;;;;;12.07;2.05;;;;;;;43.53;21.17;100915.22;1673230;85;21213;-63
2021/06/24 08:46:28;;;;;;;14.98;2.00;;;;;;;43.57;20.51;100915.35;1673835;85;21256;-60
2021/06/24 08:49:03;;;;;;;16.07;1.80;;;;;;;43.52;19.98;100911.64;1673087;85;21343;-62
2021/06/24 08:51:36;;;;;;;13.85;3.00;;;;;;;43.39;19.92;100911.39;1674275;85;21185;-64
2021/06/24 08:54:12;;;;;;;5.80;1.50;;;;;;;43.33;20.23;100903.66;1673018;85;22178;-63
2021/06/24 08:56:46;;;;;;;9.08;2.15;;;;;;;43.33;19.29;100901.71;1652827;85;22129;-63
2021/06/24 08:59:19;;;;;;;10.25;2.35;;;;;;;43.28;20.03;100903.27;1673386;85;21339;-61
2021/06/24 09:02:06;;;;;;;10.68;2.45;;;;;;;42.88;20.43;100902.14;1674597;85;21359;-62
2021/06/24 09:04:46;;;;;;;14.15;3.00;;;;;;;42.69;20.85;100895.73;1673242;85;21936;-63
2021/06/24 09:07:20;;;;;;;14.00;2.37;;;;;;;42.69;21.38;100894.92;1673245;84;21236;-64
2021/06/24 09:09:55;;;;;;;10.63;1.82;;;;;;;42.60;20.72;100894.19;1674459;85;21351;-64
2021/06/24 09:16:43;;;;;;;21.48;3.02;;;;;;;42.27;19.69;100898.17;1674035;85;21157;-63
2021/06/24 09:19:24;;;;;;;13.32;2.35;;;;;;;42.01;20.92;100891.37;1648510;86;21311;-63
2021/06/24 09:22:11;;;;;;;8.18;2.08;;;;;;;41.98;20.84;100898.13;1627089;87;21548;-63
2021/06/24 09:24:48;;;;;;;8.08;1.70;;;;;;;41.91;19.47;100895.89;1648015;86;21355;-63
2021/06/24 09:27:36;;;;;;;18.12;2.47;;;;;;;41.74;18.82;100894.58;1648621;87;21375;-63
2021/06/24 09:30:15;;;;;;;9.48;1.82;;;;;;;41.58;19.83;100890.72;1647516;87;22296;-64
2021/06/24 09:32:48;;;;;;;9.18;2.20;;;;;;;41.44;19.31;100887.36;1649083;87;22110;-64
2021/06/24 09:35:32;;;;;;;13.90;2.20;;;;;;;41.27;19.18;100880.48;1648869;87;21340;-63
2021/06/24 09:38:10;;;;;;;10.30;1.85;;;;;;;41.04;19.22;100875.73;1647307;86;21332;-63
2021/06/24 09:40:53;;;;;;;8.15;1.70;;;;;;;40.83;19.29;100871.99;1648711;87;21233;-64
2021/06/24 09:43:35;;;;;;;8.73;2.05;;;;;;;40.66;19.17;100876.09;1648836;87;21355;-65
2021/06/24 09:46:15;;;;;;;10.10;2.00;;;;;;;40.34;19.60;100881.44;1648862;87;21614;-62
2021/06/24 09:49:05;;;;;;;5.22;1.87;;;;;;;39.95;20.70;100879.50;1647785;85;21503;-63
2021/06/24 09:51:37;;;;;;;11.33;2.08;;;;;;;39.75;20.47;100871.00;1649149;87;21343;-63
2021/06/24 09:54:13;;;;;;;5.72;1.45;;;;;;;39.56;20.33;100869.83;1626568;87;21513;-61
2021/06/24 09:56:52;;;;;;;5.92;1.45;;;;;;;39.44;20.76;100870.41;1649095;87;21205;-61
2021/06/24 09:59:39;;;;;;;11.97;2.37;;;;;;;39.33;19.34;100863.59;1648476;86;21336;-61
2021/06/24 10:02:14;;;;;;;4.17;1.45;;;;;;;39.21;19.77;100866.08;1649240;87;21327;-62
2021/06/24 10:04:48;;;;;;;9.58;2.10;;;;;;;39.14;18.99;100860.76;1648404;87;21352;-62
2021/06/24 10:07:21;;;;;;;10.82;1.42;;;;;;;39.01;19.28;100867.91;1647646;87;21268;-64
2021/06/24 10:09:55;;;;;;;8.90;1.62;;;;;;;38.80;19.96;100866.77;1647717;87;21304;-61
2021/06/24 10:16:39;;;;;;;11.93;2.35;;;;;;;38.66;20.86;100859.12;1648814;87;21283;-61
2021/06/24 10:23:08;;;;;;;8.10;1.72;;;;;;;38.58;20.33;100861.20;1686259;83;21194;-62
2021/06/24 10:25:42;;;;;;;7.35;1.60;;;;;;;38.52;19.53;100861.90;1701648;84;21484;-62
2021/06/24 10:28:16;;;;;;;14.87;2.00;;;;;;;38.41;19.55;100869.50;1691217;83;22075;-60
2021/06/24 10:30:51;;;;;;;10.35;1.90;;;;;;;38.33;19.34;100863.95;1690618;83;21422;-64
2021/06/24 10:33:24;;;;;;;6.90;1.30;;;;;;;38.20;19.06;100864.17;1713442;83;21330;-67
2021/06/24 10:35:58;;;;;;;10.18;1.60;;;;;;;38.02;19.17;100867.84;1702384;83;21622;-68
2021/06/24 10:38:44;;;;;;;6.08;1.30;;;;;;;37.90;19.46;100863.42;1681943;83;21228;-70
2021/06/24 10:41:19;;;;;;;16.52;1.82;;;;;;;37.74;19.81;100871.60;1687679;84;21476;-71
2021/06/24 10:43:53;;;;;;;10.88;1.90;;;;;;;37.60;21.09;100874.87;1688378;85;21367;-71
2021/06/24 10:46:26;;;;;;;13.60;2.30;;;;;;;37.48;21.86;100865.79;1677265;85;21340;-70
2021/06/24 10:49:21;;;;;;;6.55;1.47;;;;;;;37.43;21.55;100876.80;1677128;85;21245;-70
2021/06/24 10:51:57;;;;;;;7.53;1.40;;;;;;;37.41;21.71;100866.73;1677642;85;21386;-68
2021/06/24 10:54:42;;;;;;;14.68;2.22;;;;;;;37.43;20.99;100874.07;1652924;85;21331;-67
2021/06/24 10:57:39;;;;;;;9.88;1.92;;;;;;;37.47;21.13;100871.56;1678115;85;21391;-68
2021/06/24 11:00:38;;;;;;;6.50;1.60;;;;;;;37.53;20.62;100871.72;1677544;85;21237;-66
2021/06/24 11:03:13;;;;;;;6.92;1.62;;;;;;;37.50;20.24;100867.66;1677789;85;21344;-66
2021/06/24 11:05:48;;;;;;;5.50;1.72;;;;;;;37.49;20.51;100869.34;1677505;85;21448;-67
2021/06/24 11:08:29;;;;;;;9.15;1.70;;;;;;;37.47;20.67;100874.30;1677523;85;21343;-66
2021/06/24 11:11:09;;;;;;;7.78;1.65;;;;;;;37.43;20.65;100868.61;1677230;85;22367;-70
2021/06/24 11:13:51;;;;;;;6.47;1.60;;;;;;;37.37;21.11;100879.34;1676492;85;21368;-69
2021/06/24 11:16:30;;;;;;;7.25;2.02;;;;;;;37.34;21.57;100874.47;1676931;85;21391;-66
2021/06/24 11:19:10;;;;;;;7.08;1.77;;;;;;;37.29;21.74;100871.82;1674451;85;21570;-68
2021/06/24 11:21:52;;;;;;;12.30;1.77;;;;;;;37.23;21.94;100870.84;1675541;85;21377;-66
2021/06/24 11:24:28;;;;;;;6.15;1.72;;;;;;;37.26;22.33;100869.68;1677836;85;21331;-67
2021/06/24 11:27:02;;;;;;;8.10;1.70;;;;;;;37.27;21.42;100865.03;1676525;85;21625;-71
2021/06/24 11:29:42;;;;;;;13.80;2.12;;;;;;;37.29;21.92;100866.36;1677131;85;21209;-69
2021/06/24 11:32:27;;;;;;;11.85;2.02;;;;;;;37.27;21.77;100867.22;1676710;85;22165;-69
2021/06/24 11:37:54;;;;;;;12.07;1.80;;;;;;;37.33;21.44;100872.84;1629502;88;22093;-68
2021/06/24 11:40:28;;;;;;;6.17;1.57;;;;;;;37.31;20.62;100861.41;1585156;88;21259;-68
2021/06/24 11:43:07;;;;;;;6.75;1.52;;;;;;;37.30;20.95;100861.72;1649320;85;21248;-66
2021/06/24 11:45:44;;;;;;;7.72;1.80;;;;;;;37.30;20.62;100858.44;1659741;85;21511;-68
2021/06/24 11:48:20;;;;;;;6.03;1.50;;;;;;;37.27;20.31;100865.03;1679580;85;21611;-70
2021/06/24 12:05:39;;;;;;;8.93;1.87;;;;;;;37.17;21.59;100859.19;1713137;83;21194;-72
2021/06/24 12:08:22;;;;;;;8.90;2.02;;;;;;;37.23;22.41;100868.94;1715337;83;21210;-69
2021/06/24 12:11:10;;;;;;;6.97;1.70;;;;;;;37.22;21.89;100859.11;1714378;83;21476;-67
2021/06/24 12:13:44;;;;;;;4.85;1.70;;;;;;;37.19;22.06;100863.00;1715311;83;21194;-71
2021/06/24 12:16:17;;;;;;;12.45;1.87;;;;;;;37.25;22.28;100869.98;1715111;83;21340;-71
2021/06/24 12:18:52;;;;;;;7.47;2.02;;;;;;;37.30;22.27;100876.19;1714094;83;21313;-69
2021/06/24 12:21:28;;;;;;;6.42;1.77;;;;;;;37.28;21.92;100871.58;1715033;83;21368;-70
2021/06/24 12:24:01;;;;;;;10.10;2.00;;;;;;;37.29;22.17;100867.72;1715132;83;21429;-68
2021/06/24 12:26:35;;;;;;;5.92;1.72;;;;;;;37.31;22.23;100872.33;1715131;83;22049;-69
2021/06/24 12:29:09;;;;;;;11.15;1.60;;;;;;;37.30;21.89;100874.83;1712309;83;21332;-71
2021/06/24 12:31:44;;;;;;;4.40;1.40;;;;;;;37.26;22.47;100877.87;1711531;83;21332;-72
2021/06/24 12:38:30;;;;;;;6.53;1.70;;;;;;;37.25;21.81;100865.89;1715210;83;21182;-70
2021/06/24 12:41:14;;;;;;;9.83;2.15;;;;;;;37.23;21.64;100866.75;1714277;83;21995;-71
2021/06/24 12:47:57;;;;;;;13.43;2.52;;;;;;;37.19;22.64;100865.16;1714239;83;21342;-70
2021/06/24 12:50:38;;;;;;;7.35;1.70;;;;;;;37.10;22.38;100866.95;1714569;83;21348;-67
2021/06/24 12:53:15;;;;;;;10.43;2.00;;;;;;;37.06;22.63;100861.28;1714103;83;21340;-70
2021/06/24 12:55:51;;;;;;;10.32;1.82;;;;;;;37.03;22.74;100863.78;1715358;83;21326;-69
2021/06/24 12:58:31;;;;;;;21.60;3.00;;;;;;;36.97;23.13;100857.58;1713947;83;21341;-68
2021/06/24 13:01:16;;;;;;;5.20;1.72;;;;;;;36.95;23.76;100857.06;1714446;83;21194;-69
2021/06/24 13:03:58;;;;;;;4.53;1.67;;;;;;;36.94;24.39;100862.84;1714033;83;22211;-69
2021/06/24 13:06:32;;;;;;;6.85;1.65;;;;;;;36.93;23.73;100853.83;1714380;83;21519;-68
2021/06/24 13:09:13;;;;;;;8.63;2.08;;;;;;;36.96;24.07;100861.44;1713706;83;22011;-68
2021/06/24 13:11:55;;;;;;;9.73;1.90;;;;;;;36.97;24.43;100849.97;1728322;82;21240;-67
2021/06/24 13:18:53;;;;;;;9.55;2.10;;;;;;;36.95;25.70;100861.16;1702724;83;21424;-70
2021/06/24 13:21:26;;;;;;;6.75;2.02;;;;;;;36.90;25.22;100856.33;1699865;84;21899;-70